EVST345 VNLK-VNLK
Flight info
| Callsign | EVST345 |
|---|---|
| Flight time | 1h 38m |
| Altitude | 29000 |
| Route | DCT |
| Aircraft | PC6T/L-V/N |
Departure
| Time | 2025-06-05 09:19 |
|---|---|
| Airport | Tenzing-Hillary Airport (VNLK) |
Arrival
| Time | 2025-06-05 10:57 |
|---|---|
| Airport | Tenzing-Hillary Airport (VNLK) |
| Time | Latitude | Longitude | Altitude | Speed | Heading |
|---|---|---|---|---|---|
| 2025-06-05 08:08 | 27.68733 | 86.73169 | 9406 ft | 0 kts | 248° |
| 2025-06-05 08:44 | 27.68732 | 86.73168 | 9405 ft | 0 kts | 263° |
| 2025-06-05 08:44 | 27.68734 | 86.73161 | 9403 ft | 0 kts | 357° |
| 2025-06-05 08:45 | 27.68735 | 86.73160 | 9402 ft | 1 kts | 32° |
| 2025-06-05 08:45 | 27.68736 | 86.73174 | 9409 ft | 0 kts | 63° |
| 2025-06-05 09:00 | 27.68774 | 86.73255 | 9481 ft | 0 kts | 63° |
| 2025-06-05 09:00 | 27.68734 | 86.73169 | 9411 ft | 0 kts | 63° |
| 2025-06-05 09:14 | 27.68753 | 86.73173 | 9405 ft | 7 kts | 338° |
| 2025-06-05 09:15 | 27.68785 | 86.73153 | 9408 ft | 0 kts | 232° |
| 2025-06-05 09:15 | 27.68562 | 86.72710 | 9216 ft | 99 kts | 240° |
| 2025-06-05 09:16 | 27.68518 | 86.71157 | 9522 ft | 112 kts | 302° |
| 2025-06-05 09:16 | 27.69972 | 86.70683 | 9791 ft | 111 kts | 4° |
| 2025-06-05 09:17 | 27.71587 | 86.70731 | 9872 ft | 114 kts | 359° |
| 2025-06-05 09:17 | 27.73264 | 86.70769 | 10145 ft | 124 kts | 356° |
| 2025-06-05 09:18 | 27.75921 | 86.71021 | 10768 ft | 128 kts | 23° |
| 2025-06-05 09:19 | 27.77590 | 86.71721 | 11267 ft | 133 kts | 11° |
| 2025-06-05 09:19 | 27.78528 | 86.71907 | 11457 ft | 130 kts | 11° |
| 2025-06-05 09:19 | 27.80301 | 86.72382 | 11957 ft | 134 kts | 21° |
| 2025-06-05 09:20 | 27.81842 | 86.73453 | 12647 ft | 132 kts | 38° |
| 2025-06-05 09:20 | 27.83023 | 86.74585 | 13134 ft | 138 kts | 46° |
| 2025-06-05 09:21 | 27.84172 | 86.76390 | 13891 ft | 136 kts | 56° |
| 2025-06-05 09:21 | 27.85430 | 86.77962 | 14539 ft | 139 kts | 43° |
| 2025-06-05 09:22 | 27.87515 | 86.80244 | 15405 ft | 141 kts | 43° |
| 2025-06-05 09:22 | 27.88224 | 86.81030 | 15623 ft | 141 kts | 47° |
| 2025-06-05 09:23 | 27.89293 | 86.82882 | 16165 ft | 141 kts | 68° |
| 2025-06-05 09:23 | 27.90064 | 86.84935 | 16900 ft | 143 kts | 68° |
| 2025-06-05 09:24 | 27.90815 | 86.86670 | 17496 ft | 146 kts | 70° |
| 2025-06-05 09:24 | 27.91054 | 86.88917 | 17898 ft | 148 kts | 107° |
| 2025-06-05 09:25 | 27.90531 | 86.91160 | 18263 ft | 146 kts | 105° |
| 2025-06-05 09:25 | 27.90464 | 86.93506 | 18722 ft | 154 kts | 72° |
| 2025-06-05 09:26 | 27.93109 | 86.94616 | 19326 ft | 140 kts | 313° |
| 2025-06-05 09:26 | 27.93555 | 86.93686 | 19427 ft | 139 kts | 271° |
| 2025-06-05 09:27 | 27.93442 | 86.91658 | 20024 ft | 125 kts | 249° |
| 2025-06-05 09:27 | 27.92880 | 86.89785 | 20398 ft | 123 kts | 240° |
| 2025-06-05 09:28 | 27.92308 | 86.87901 | 20798 ft | 134 kts | 259° |
| 2025-06-05 09:28 | 27.92696 | 86.85874 | 21328 ft | 140 kts | 285° |
| 2025-06-05 09:29 | 27.94134 | 86.84353 | 21688 ft | 158 kts | 328° |
| 2025-06-05 09:29 | 27.96222 | 86.83586 | 22015 ft | 163 kts | 336° |
| 2025-06-05 09:30 | 27.99646 | 86.83375 | 22588 ft | 175 kts | 15° |
| 2025-06-05 09:30 | 28.00799 | 86.83893 | 22696 ft | 182 kts | 23° |
| 2025-06-05 09:31 | 28.02920 | 86.85396 | 23161 ft | 185 kts | 43° |
| 2025-06-05 09:31 | 28.04320 | 86.87734 | 23593 ft | 183 kts | 71° |
| 2025-06-05 09:32 | 28.04784 | 86.90452 | 23963 ft | 175 kts | 102° |
| 2025-06-05 09:32 | 28.04633 | 86.93133 | 24230 ft | 166 kts | 96° |
| 2025-06-05 09:33 | 28.03813 | 86.95453 | 24144 ft | 156 kts | 140° |
| 2025-06-05 09:33 | 28.02377 | 86.97157 | 24475 ft | 139 kts | 156° |
| 2025-06-05 09:34 | 27.99749 | 86.98623 | 24732 ft | 141 kts | 173° |
| 2025-06-05 09:34 | 27.98819 | 86.98824 | 24927 ft | 127 kts | 187° |
| 2025-06-05 09:36 | 27.93988 | 86.94367 | 26079 ft | 135 kts | 265° |
| 2025-06-05 09:38 | 28.01081 | 86.90230 | 27901 ft | 178 kts | 359° |
| 2025-06-05 09:40 | 28.00623 | 86.97688 | 28335 ft | 121 kts | 195° |
| 2025-06-05 09:42 | 27.98961 | 86.91452 | 28283 ft | 134 kts | 261° |
| 2025-06-05 09:44 | 28.03459 | 86.94612 | 28895 ft | 150 kts | 171° |
| 2025-06-05 09:46 | 27.97077 | 86.92415 | 29534 ft | 136 kts | 166° |
| 2025-06-05 09:48 | 28.03475 | 86.98897 | 29478 ft | 181 kts | 306° |
| 2025-06-05 09:50 | 28.00242 | 86.93369 | 29187 ft | 112 kts | 211° |
| 2025-06-05 09:52 | 28.01272 | 86.90959 | 28195 ft | 217 kts | 11° |
| 2025-06-05 09:54 | 28.06801 | 87.00897 | 28531 ft | 173 kts | 131° |
| 2025-06-05 09:56 | 28.01246 | 86.99519 | 28214 ft | 142 kts | 246° |
| 2025-06-05 09:58 | 27.99380 | 86.91850 | 27049 ft | 121 kts | 218° |
| 2025-06-05 10:00 | 27.93372 | 86.98820 | 26646 ft | 216 kts | 106° |
| 2025-06-05 10:02 | 27.97804 | 87.02163 | 27189 ft | 227 kts | 46° |
| 2025-06-05 10:04 | 28.00219 | 86.96181 | 27345 ft | 88 kts | 249° |
| 2025-06-05 10:06 | 27.97923 | 86.91226 | 27884 ft | 163 kts | 319° |
| 2025-06-05 10:08 | 27.99408 | 86.94036 | 27826 ft | 110 kts | 230° |
| 2025-06-05 10:10 | 27.98211 | 86.90470 | 27248 ft | 192 kts | 308° |
| 2025-06-05 10:12 | 28.06961 | 86.96812 | 28240 ft | 219 kts | 63° |
| 2025-06-05 10:14 | 28.03479 | 87.04834 | 29321 ft | 122 kts | 179° |
| 2025-06-05 10:16 | 27.99863 | 87.00666 | 30819 ft | 97 kts | 237° |
| 2025-06-05 10:18 | 27.98256 | 86.95278 | 31464 ft | 157 kts | 292° |
| 2025-06-05 10:20 | 27.97889 | 86.95935 | 32009 ft | 236 kts | 56° |
| 2025-06-05 10:22 | 27.99934 | 86.93937 | 32291 ft | 127 kts | 194° |
| 2025-06-05 10:24 | 27.93376 | 86.98497 | 32406 ft | 213 kts | 120° |
| 2025-06-05 10:26 | 28.00605 | 87.03825 | 33593 ft | 149 kts | 291° |
| 2025-06-05 10:28 | 27.98365 | 87.01898 | 34323 ft | 167 kts | 155° |
| 2025-06-05 10:30 | 27.92152 | 87.08217 | 35134 ft | 210 kts | 103° |
| 2025-06-05 10:32 | 27.97005 | 87.17287 | 36302 ft | 186 kts | 8° |
| 2025-06-05 10:34 | 27.97847 | 87.11256 | 36426 ft | 113 kts | 227° |
| 2025-06-05 10:36 | 27.96431 | 87.04480 | 36838 ft | 111 kts | 247° |
| 2025-06-05 10:38 | 27.99773 | 86.96403 | 37305 ft | 115 kts | 272° |
| 2025-06-05 10:40 | 28.05786 | 86.92896 | 31355 ft | 147 kts | 321° |
| 2025-06-05 10:42 | 28.11043 | 86.88712 | 28761 ft | 124 kts | 208° |
| 2025-06-05 10:44 | 28.05232 | 86.88122 | 24468 ft | 158 kts | 201° |
| 2025-06-05 10:44 | 28.04176 | 86.87716 | 24198 ft | 161 kts | 200° |
| 2025-06-05 10:45 | 28.01924 | 86.87089 | 23406 ft | 172 kts | 197° |
| 2025-06-05 10:45 | 27.99593 | 86.86627 | 23082 ft | 171 kts | 190° |
| 2025-06-05 10:46 | 27.97201 | 86.86508 | 22766 ft | 156 kts | 188° |
| 2025-06-05 10:46 | 27.93903 | 86.85505 | 20829 ft | 172 kts | 218° |
| 2025-06-05 10:47 | 27.92215 | 86.83879 | 19555 ft | 152 kts | 219° |
| 2025-06-05 10:47 | 27.90341 | 86.82493 | 18387 ft | 159 kts | 211° |
| 2025-06-05 10:48 | 27.89419 | 86.81837 | 17799 ft | 154 kts | 214° |
| 2025-06-05 10:48 | 27.87700 | 86.80414 | 16376 ft | 151 kts | 218° |
| 2025-06-05 10:49 | 27.86067 | 86.78842 | 14893 ft | 151 kts | 223° |
| 2025-06-05 10:49 | 27.84703 | 86.77210 | 14006 ft | 139 kts | 230° |
| 2025-06-05 10:50 | 27.83571 | 86.75373 | 13005 ft | 138 kts | 237° |
| 2025-06-05 10:50 | 27.81743 | 86.73229 | 12008 ft | 114 kts | 212° |
| 2025-06-05 10:51 | 27.80385 | 86.72249 | 11848 ft | 105 kts | 204° |
| 2025-06-05 10:51 | 27.78785 | 86.71939 | 11391 ft | 123 kts | 185° |
| 2025-06-05 10:52 | 27.77927 | 86.71807 | 11101 ft | 119 kts | 190° |
| 2025-06-05 10:52 | 27.76451 | 86.71297 | 10511 ft | 102 kts | 205° |
| 2025-06-05 10:53 | 27.74913 | 86.70614 | 10540 ft | 132 kts | 200° |
| 2025-06-05 10:53 | 27.73321 | 86.70198 | 10645 ft | 111 kts | 182° |
| 2025-06-05 10:54 | 27.72127 | 86.70394 | 10417 ft | 103 kts | 178° |
| 2025-06-05 10:54 | 27.70093 | 86.70513 | 9782 ft | 108 kts | 179° |
| 2025-06-05 10:55 | 27.68766 | 86.70385 | 9826 ft | 91 kts | 186° |
| 2025-06-05 10:55 | 27.68039 | 86.71179 | 9505 ft | 98 kts | 92° |
| 2025-06-05 10:56 | 27.68484 | 86.72579 | 9223 ft | 94 kts | 62° |
| 2025-06-05 10:56 | 27.68732 | 86.73058 | 9434 ft | 13 kts | 51° |
| 2025-06-05 10:57 | 27.68762 | 86.73169 | 9474 ft | 5 kts | 169° |
| 2025-06-05 10:57 | 27.68730 | 86.73167 | 9473 ft | 0 kts | 59° |
| 2025-06-05 10:59 | 27.68779 | 86.73149 | 9473 ft | 5 kts | 257° |
| 2025-06-05 10:59 | 27.68776 | 86.73140 | 9472 ft | 1 kts | 250° |
| 2025-06-05 10:59 | 27.68672 | 86.72966 | 9396 ft | 0 kts | 105° |
| 2025-06-05 11:00 | 27.68107 | 86.71886 | 10161 ft | 157 kts | 279° |
| 2025-06-05 11:00 | 27.66748 | 86.70109 | 10776 ft | 6690 kts | 49° |
| 2025-06-05 11:01 | 27.68126 | 86.71366 | 10145 ft | 130 kts | 1° |
| 2025-06-05 11:01 | 27.68252 | 86.70791 | 10058 ft | 105 kts | 136° |
| 2025-06-05 11:02 | 27.68640 | 86.72868 | 9326 ft | 81 kts | 63° |
| 2025-06-05 11:03 | 27.68759 | 86.73167 | 9479 ft | 1 kts | 165° |
| 2025-06-05 11:03 | 27.68734 | 86.73176 | 9478 ft | 5 kts | 88° |
| 2025-06-05 11:04 | 27.68738 | 86.73184 | 9475 ft | 14 kts | 46° |
| 2025-06-05 11:04 | 27.68771 | 86.73176 | 9476 ft | 0 kts | 278° |
| 2025-06-05 11:05 | 27.68776 | 86.73130 | 9477 ft | 0 kts | 241° |
| 2025-06-05 11:05 | 27.68746 | 86.73078 | 9454 ft | 43 kts | 239° |
| 2025-06-05 11:06 | 27.67950 | 86.70755 | 9884 ft | 129 kts | 224° |
| 2025-06-05 11:07 | 27.67098 | 86.71087 | 10005 ft | 137 kts | 65° |
| 2025-06-05 11:07 | 27.68199 | 86.72215 | 9409 ft | 99 kts | 44° |
| 2025-06-05 11:07 | 27.68588 | 86.72772 | 9281 ft | 82 kts | 63° |
| 2025-06-05 11:08 | 27.68757 | 86.73151 | 9475 ft | 1 kts | 221° |
| 2025-06-05 11:08 | 27.68748 | 86.73157 | 9476 ft | 0 kts | 51° |
| 2025-06-05 11:10 | 27.68751 | 86.73162 | 9476 ft | 0 kts | 50° |